Neches, Texas
Current Conditions -  °F | °C
As of 10:35 PM on Thursday 18 Dec 2014 (Local Time) from KPSN Reporting Station
Haze Haze  
Wind Chill: 51°   Ceiling: 600
Heat Index: 51°   Visibility: 4mi
Dew Point: 49°   Wind: 6mph
Humidity: 95%   Direction: 20°NNE
Pressure: 30.15"   Gusts: NA
Location:  31.87°N, 95.5°W
Report Text: KPSN 190435Z AUTO 02005KT 4SM BR OVC006 10/09 A3015 RMK AO2 T01030095
Loading
Personal Weather Stations






























Interactive Weather Map New forecast layout! Learn more

10-Day Weather Forecast

Advertisements
Track Severe Weather on mobile